createdAt,value
2022-09-25T00:00:50.771Z,50.70
2022-09-25T00:03:18.590Z,49.17
2022-09-25T00:05:46.167Z,56.63
2022-09-25T00:08:13.810Z,55.83
2022-09-25T00:10:42.437Z,56.37
2022-09-25T00:13:10.087Z,54.90
2022-09-25T00:15:37.636Z,56.33
2022-09-25T00:18:07.466Z,54.53
2022-09-25T00:20:34.039Z,59.80
2022-09-25T00:23:02.331Z,51.97
2022-09-25T00:25:28.808Z,55.10
2022-09-25T00:27:55.748Z,52.13
2022-09-25T00:30:22.419Z,53.03
2022-09-25T00:32:48.950Z,52.40
2022-09-25T00:35:15.568Z,53.20
2022-09-25T00:37:42.009Z,52.73
2022-09-25T00:40:09.567Z,47.93
2022-09-25T00:42:36.647Z,47.63
2022-09-25T00:45:18.485Z,54.40
2022-09-25T00:47:53.343Z,49.67
2022-09-25T00:50:35.683Z,51.50
2022-09-25T00:53:09.297Z,49.43
2022-09-25T00:55:37.759Z,53.50
2022-09-25T00:58:06.155Z,55.13
2022-09-25T01:00:34.271Z,55.30
2022-09-25T01:03:05.127Z,51.70
2022-09-25T01:05:35.645Z,51.70
2022-09-25T01:08:05.900Z,53.87
2022-09-25T01:10:33.787Z,50.23
2022-09-25T01:13:01.411Z,52.83
2022-09-25T01:15:34.028Z,49.10
2022-09-25T01:18:12.936Z,51.10
2022-09-25T01:21:17.464Z,49.03
2022-09-25T01:24:24.220Z,45.10
2022-09-25T01:27:02.760Z,49.90
2022-09-25T01:29:47.454Z,43.23
2022-09-25T01:32:32.575Z,41.00
2022-09-25T01:35:09.336Z,46.03
2022-09-25T01:37:45.572Z,38.70
2022-09-25T01:40:21.331Z,38.57
2022-09-25T01:42:56.216Z,35.67
2022-09-25T01:45:36.846Z,39.53
2022-09-25T01:48:07.641Z,36.23
2022-09-25T01:50:50.859Z,39.13
2022-09-25T01:53:23.907Z,36.53
2022-09-25T01:55:58.317Z,39.03
2022-09-25T01:58:34.107Z,36.57
2022-09-25T02:01:14.024Z,36.23
2022-09-25T02:03:50.681Z,35.33
2022-09-25T02:06:20.873Z,32.00
2022-09-25T02:08:54.505Z,34.00
2022-09-25T02:11:23.239Z,35.93
2022-09-25T02:13:58.768Z,30.87
2022-09-25T02:16:35.497Z,32.37
2022-09-25T02:19:23.038Z,31.80
2022-09-25T02:22:05.038Z,34.63
2022-09-25T02:24:43.247Z,30.23
2022-09-25T02:27:09.751Z,32.13
2022-09-25T02:29:36.764Z,30.70
2022-09-25T02:32:07.716Z,34.17
2022-09-25T02:34:34.563Z,28.40
2022-09-25T02:37:02.091Z,35.60
2022-09-25T02:39:31.072Z,33.23
2022-09-25T02:42:25.726Z,32.37
2022-09-25T02:45:20.053Z,31.03
2022-09-25T02:48:24.377Z,26.97
2022-09-25T02:51:07.859Z,22.90
2022-09-25T02:53:51.409Z,26.77
2022-09-25T02:56:24.555Z,28.33
2022-09-25T02:58:54.855Z,28.27
2022-09-25T03:01:25.034Z,20.57
2022-09-25T03:03:55.277Z,19.27
2022-09-25T03:06:25.472Z,26.53
2022-09-25T03:08:56.740Z,26.07
2022-09-25T03:11:26.799Z,20.90
2022-09-25T03:14:02.489Z,26.63
2022-09-25T03:16:56.450Z,24.90
2022-09-25T03:19:26.748Z,20.13
2022-09-25T03:21:54.105Z,22.17
2022-09-25T03:24:21.240Z,19.40
2022-09-25T03:26:47.845Z,26.70
2022-09-25T03:29:17.224Z,21.00
2022-09-25T03:31:45.428Z,17.73
2022-09-25T03:34:13.396Z,21.53
2022-09-25T03:36:40.638Z,21.20
2022-09-25T03:39:07.135Z,22.63
2022-09-25T03:41:35.150Z,18.13
2022-09-25T03:44:04.250Z,19.53
2022-09-25T03:46:34.178Z,22.13
2022-09-25T03:49:01.839Z,21.43
2022-09-25T03:51:31.237Z,28.30
2022-09-25T03:53:58.102Z,20.30
2022-09-25T03:56:27.113Z,21.87
2022-09-25T03:58:56.684Z,20.60
2022-09-25T04:01:24.509Z,17.93
2022-09-25T04:03:51.430Z,17.90
2022-09-25T04:06:21.004Z,19.77
2022-09-25T04:08:48.316Z,21.20
2022-09-25T04:11:16.716Z,22.43
2022-09-25T04:13:44.680Z,17.07
2022-09-25T04:16:13.311Z,20.20
2022-09-25T04:18:41.725Z,19.00
2022-09-25T04:21:10.648Z,17.73
2022-09-25T04:23:37.923Z,18.27
2022-09-25T04:26:05.238Z,21.03
2022-09-25T04:28:33.561Z,19.37
2022-09-25T04:31:01.217Z,15.20
2022-09-25T04:33:48.539Z,19.80
2022-09-25T04:36:16.795Z,16.03
2022-09-25T04:38:43.905Z,17.77
2022-09-25T04:41:10.489Z,19.67
2022-09-25T04:43:37.140Z,15.33
2022-09-25T04:46:08.895Z,13.50
2022-09-25T04:48:36.022Z,17.77
2022-09-25T04:51:04.831Z,17.13
2022-09-25T04:53:35.316Z,15.93
2022-09-25T04:56:12.266Z,16.80
2022-09-25T04:58:45.550Z,22.10
2022-09-25T05:01:12.064Z,17.27
2022-09-25T05:03:38.606Z,12.80
2022-09-25T05:06:05.371Z,13.70
2022-09-25T05:08:32.641Z,17.57
2022-09-25T05:10:59.223Z,18.60
2022-09-25T05:13:25.692Z,14.60
2022-09-25T05:15:52.235Z,14.47
2022-09-25T05:18:21.292Z,14.23
2022-09-25T05:20:48.677Z,17.90
2022-09-25T05:23:16.234Z,14.97
2022-09-25T05:25:43.133Z,12.17
2022-09-25T05:28:10.130Z,13.30
2022-09-25T05:30:38.809Z,12.90
2022-09-25T05:33:05.749Z,12.70
2022-09-25T05:35:33.761Z,15.90
2022-09-25T05:38:00.693Z,15.33
2022-09-25T05:40:28.446Z,14.13
2022-09-25T05:42:55.333Z,14.00
2022-09-25T05:45:23.241Z,18.43
2022-09-25T05:47:59.051Z,20.97
2022-09-25T05:50:26.086Z,14.03
2022-09-25T05:53:00.575Z,14.50
2022-09-25T05:55:28.304Z,10.83
2022-09-25T05:58:00.215Z,15.97
2022-09-25T06:00:28.221Z,15.80
2022-09-25T06:02:54.781Z,16.80
2022-09-25T06:05:21.294Z,18.37
2022-09-25T06:07:52.789Z,16.33
2022-09-25T06:10:19.424Z,19.03
2022-09-25T06:12:45.866Z,14.00
2022-09-25T06:15:12.232Z,14.43
2022-09-25T06:17:38.745Z,15.70
2022-09-25T06:20:05.897Z,15.03
2022-09-25T06:22:32.725Z,20.23
2022-09-25T06:24:59.179Z,18.40
2022-09-25T06:27:25.641Z,16.07
2022-09-25T06:29:52.172Z,15.57
2022-09-25T06:32:18.607Z,22.03
2022-09-25T06:34:45.045Z,18.93
2022-09-25T06:37:11.507Z,15.50
2022-09-25T06:39:37.999Z,21.43
2022-09-25T06:42:04.749Z,19.23
2022-09-25T06:44:31.831Z,16.10
2022-09-25T06:46:59.751Z,20.70
2022-09-25T06:49:26.339Z,20.57
2022-09-25T06:51:52.786Z,22.40
2022-09-25T06:54:19.260Z,20.33
2022-09-25T06:56:49.985Z,19.73
2022-09-25T06:59:16.875Z,25.40
2022-09-25T07:01:43.376Z,23.13
2022-09-25T07:04:10.174Z,21.93
2022-09-25T07:06:37.459Z,25.50
2022-09-25T07:09:04.487Z,26.37
2022-09-25T07:11:34.172Z,22.83
2022-09-25T07:14:01.397Z,23.33
2022-09-25T07:16:30.537Z,22.57
2022-09-25T07:19:03.539Z,21.57
2022-09-25T07:21:32.546Z,20.03
2022-09-25T07:23:59.251Z,19.33
2022-09-25T07:26:30.793Z,17.97
2022-09-25T07:29:06.617Z,22.80
2022-09-25T07:31:37.784Z,22.80
2022-09-25T07:34:09.127Z,20.97
2022-09-25T07:36:38.478Z,21.90
2022-09-25T07:39:05.624Z,18.93
2022-09-25T07:41:33.080Z,19.80
2022-09-25T07:44:18.019Z,18.50
2022-09-25T07:46:46.581Z,17.60
2022-09-25T07:49:13.600Z,17.40
2022-09-25T07:51:43.327Z,14.53
2022-09-25T07:54:09.788Z,16.57
2022-09-25T07:56:38.091Z,21.27
2022-09-25T07:59:04.670Z,14.27
2022-09-25T08:01:32.421Z,15.23
2022-09-25T08:03:59.425Z,17.17
2022-09-25T08:06:25.855Z,15.13
2022-09-25T08:08:52.322Z,18.07
2022-09-25T08:11:18.835Z,16.03
2022-09-25T08:13:46.127Z,14.97
2022-09-25T08:16:16.000Z,10.70
2022-09-25T08:18:46.137Z,13.50
2022-09-25T08:21:14.563Z,15.20
2022-09-25T08:23:47.437Z,14.27
2022-09-25T08:26:14.696Z,13.43
2022-09-25T08:28:41.879Z,16.80
2022-09-25T08:31:08.798Z,14.73
2022-09-25T08:33:36.011Z,13.50
2022-09-25T08:36:05.594Z,16.33
2022-09-25T08:38:34.512Z,15.57
2022-09-25T08:41:04.001Z,12.80
2022-09-25T08:43:34.056Z,13.70
2022-09-25T08:46:24.775Z,13.70
2022-09-25T08:49:02.297Z,16.07
2022-09-25T08:51:32.102Z,14.43
2022-09-25T08:54:00.953Z,12.07
2022-09-25T08:56:29.615Z,13.90
2022-09-25T08:59:25.852Z,11.77
2022-09-25T09:01:57.661Z,10.47
2022-09-25T09:04:39.151Z,10.77
2022-09-25T09:07:26.221Z,14.70
2022-09-25T09:10:07.259Z,16.20
2022-09-25T09:12:45.168Z,15.43
2022-09-25T09:15:34.660Z,12.83
2022-09-25T09:18:14.228Z,10.93
2022-09-25T09:20:52.293Z,13.40
2022-09-25T09:23:21.679Z,11.20
2022-09-25T09:26:02.026Z,12.37
2022-09-25T09:28:34.653Z,10.67
2022-09-25T09:31:21.161Z,13.10
2022-09-25T09:33:56.036Z,10.67
2022-09-25T09:36:28.300Z,10.53
2022-09-25T09:39:13.503Z,10.10
2022-09-25T09:41:51.496Z,10.93
2022-09-25T09:44:30.897Z,8.60
2022-09-25T09:47:39.312Z,8.23
2022-09-25T09:50:11.758Z,10.67
2022-09-25T09:52:42.350Z,9.23
2022-09-25T09:55:39.113Z,7.20
2022-09-25T09:58:19.111Z,7.87
2022-09-25T10:00:48.383Z,9.10
2022-09-25T10:03:28.530Z,7.07
2022-09-25T10:05:59.165Z,8.07
2022-09-25T10:08:25.696Z,6.50
2022-09-25T10:10:54.367Z,7.40
2022-09-25T10:13:34.026Z,7.17
2022-09-25T10:16:12.753Z,7.90
2022-09-25T10:18:46.568Z,7.10
2022-09-25T10:21:15.143Z,7.33
2022-09-25T10:23:48.285Z,8.77
2022-09-25T10:26:37.215Z,5.90
2022-09-25T10:29:10.294Z,8.83
2022-09-25T10:31:40.881Z,6.50
2022-09-25T10:34:13.657Z,6.47
2022-09-25T10:36:42.776Z,4.57
2022-09-25T10:39:43.612Z,4.40
2022-09-25T10:42:36.087Z,5.03
2022-09-25T10:45:30.885Z,4.50
2022-09-25T10:48:27.007Z,5.43
2022-09-25T10:51:07.546Z,6.20
2022-09-25T10:53:34.713Z,5.73
2022-09-25T10:56:36.123Z,4.80
2022-09-25T10:59:09.281Z,6.43
2022-09-25T11:01:41.430Z,6.27
2022-09-25T11:04:24.637Z,5.43
2022-09-25T11:07:01.756Z,5.50
2022-09-25T11:09:32.979Z,3.97
2022-09-25T11:12:15.080Z,7.63
2022-09-25T11:14:55.243Z,4.90
2022-09-25T11:17:42.684Z,4.73
2022-09-25T11:20:22.674Z,5.37
2022-09-25T11:23:01.119Z,5.63
2022-09-25T11:25:40.413Z,3.17
2022-09-25T11:28:44.589Z,7.73
2022-09-25T11:31:28.495Z,4.50
2022-09-25T11:34:08.221Z,3.57
2022-09-25T11:36:48.147Z,3.03
2022-09-25T11:39:46.279Z,3.20
2022-09-25T11:42:31.133Z,2.73
2022-09-25T11:45:08.719Z,4.50
2022-09-25T11:47:54.017Z,3.80
2022-09-25T11:50:26.025Z,2.30
2022-09-25T11:53:21.093Z,3.17
2022-09-25T11:55:50.501Z,3.10
2022-09-25T11:58:26.547Z,2.83
2022-09-25T12:01:09.468Z,4.10
2022-09-25T12:03:57.135Z,3.63
2022-09-25T12:06:48.939Z,3.30
2022-09-25T12:09:34.300Z,2.53
2022-09-25T12:12:03.520Z,3.27
2022-09-25T12:14:39.143Z,3.73
2022-09-25T12:17:43.716Z,1.83
2022-09-25T12:20:18.448Z,3.63
2022-09-25T12:23:15.839Z,3.20
2022-09-25T12:26:03.120Z,3.67
2022-09-25T12:29:04.069Z,1.93
2022-09-25T12:31:58.650Z,2.67
2022-09-25T12:34:43.552Z,3.17
2022-09-25T12:37:40.104Z,4.50
2022-09-25T12:40:34.634Z,1.77
2022-09-25T12:43:11.255Z,2.80
2022-09-25T12:45:43.877Z,2.83
2022-09-25T12:48:27.202Z,2.63
2022-09-25T12:51:16.407Z,2.20
2022-09-25T12:53:58.374Z,1.80
2022-09-25T12:56:27.783Z,2.93
2022-09-25T12:59:20.140Z,3.17
2022-09-25T13:02:13.737Z,4.63
2022-09-25T13:04:55.131Z,2.23
2022-09-25T13:07:44.009Z,3.57
2022-09-25T13:10:23.808Z,2.67
2022-09-25T13:12:52.728Z,3.60
2022-09-25T13:15:24.104Z,3.90
2022-09-25T13:17:51.078Z,2.53
2022-09-25T13:20:26.494Z,2.20
2022-09-25T13:22:58.790Z,4.63
2022-09-25T13:25:26.169Z,2.20
2022-09-25T13:27:54.158Z,3.00
2022-09-25T13:30:23.690Z,3.57
2022-09-25T13:32:55.939Z,1.93
2022-09-25T13:35:23.789Z,3.27
2022-09-25T13:37:53.588Z,2.03
2022-09-25T13:40:42.012Z,4.57
2022-09-25T13:43:21.332Z,5.37
2022-09-25T13:45:49.203Z,3.10
2022-09-25T13:48:37.091Z,2.50
2022-09-25T13:51:21.906Z,3.10
2022-09-25T13:54:03.647Z,5.10
2022-09-25T13:56:42.328Z,3.10
2022-09-25T13:59:17.624Z,4.07
2022-09-25T14:01:45.777Z,2.60
2022-09-25T14:04:15.025Z,5.67
2022-09-25T14:06:44.573Z,5.10
2022-09-25T14:09:14.004Z,5.07
2022-09-25T14:11:49.720Z,3.93
2022-09-25T14:14:30.262Z,6.07
2022-09-25T14:16:59.182Z,4.20
2022-09-25T14:19:36.417Z,3.43
2022-09-25T14:22:05.911Z,3.53
2022-09-25T14:24:33.168Z,2.37
2022-09-25T14:27:04.220Z,2.23
2022-09-25T14:29:38.411Z,3.10
2022-09-25T14:32:08.040Z,6.67
2022-09-25T14:34:43.482Z,3.30
2022-09-25T14:37:51.328Z,5.70
2022-09-25T14:40:23.338Z,5.17
2022-09-25T14:43:07.112Z,4.60
2022-09-25T14:46:11.996Z,3.30
2022-09-25T14:48:57.548Z,2.70
2022-09-25T14:51:31.220Z,4.07
2022-09-25T14:54:03.090Z,4.07
2022-09-25T14:56:33.271Z,3.43
2022-09-25T14:59:06.791Z,5.50
2022-09-25T15:01:34.187Z,3.40
2022-09-25T15:04:06.205Z,5.33
2022-09-25T15:06:36.568Z,5.03
2022-09-25T15:09:27.221Z,5.83
2022-09-25T15:11:54.784Z,4.40
2022-09-25T15:14:21.901Z,2.80
2022-09-25T15:17:08.484Z,5.80
2022-09-25T15:19:40.055Z,3.87
2022-09-25T15:22:22.320Z,2.73
2022-09-25T15:24:58.782Z,4.10
2022-09-25T15:27:26.959Z,3.33
2022-09-25T15:29:54.956Z,2.50
2022-09-25T15:32:26.784Z,2.77
2022-09-25T15:35:15.905Z,6.40
2022-09-25T15:37:42.355Z,5.27
2022-09-25T15:40:28.598Z,3.53
2022-09-25T15:42:55.691Z,3.50
2022-09-25T15:45:37.444Z,3.23
2022-09-25T15:48:33.267Z,2.10
2022-09-25T15:51:15.596Z,6.27
2022-09-25T15:53:51.134Z,5.10
2022-09-25T15:56:24.101Z,4.50
2022-09-25T15:58:53.348Z,3.87
2022-09-25T16:01:43.237Z,3.73
2022-09-25T16:04:39.087Z,4.67
2022-09-25T16:07:24.156Z,4.57
2022-09-25T16:09:52.912Z,3.40
2022-09-25T16:12:27.325Z,5.90
2022-09-25T16:14:55.441Z,10.63
2022-09-25T16:17:32.814Z,23.13
2022-09-25T16:20:02.498Z,28.53
2022-09-25T16:22:37.915Z,5.57
2022-09-25T16:25:15.645Z,7.13
2022-09-25T16:27:44.995Z,3.33
2022-09-25T16:30:22.300Z,6.57
2022-09-25T16:32:52.301Z,4.67
2022-09-25T16:36:04.508Z,3.47
2022-09-25T16:38:28.822Z,4.90
2022-09-25T16:41:21.488Z,3.07
2022-09-25T16:44:15.916Z,3.17
2022-09-25T16:46:55.007Z,5.13
2022-09-25T16:49:21.574Z,8.43
2022-09-25T16:51:50.061Z,4.53
2022-09-25T16:54:19.005Z,3.33
2022-09-25T16:56:48.113Z,4.03
2022-09-25T16:59:19.231Z,2.83
2022-09-25T17:01:47.044Z,5.80
2022-09-25T17:04:15.647Z,3.60
2022-09-25T17:06:45.798Z,3.80
2022-09-25T17:09:14.159Z,3.80
2022-09-25T17:11:44.446Z,4.30
2022-09-25T17:14:29.326Z,4.50
2022-09-25T17:16:57.248Z,3.67
2022-09-25T17:19:24.271Z,3.73
2022-09-25T17:21:53.021Z,3.30
2022-09-25T17:24:23.680Z,3.43
2022-09-25T17:26:51.911Z,3.03
2022-09-25T17:29:19.306Z,2.13
2022-09-25T17:31:45.949Z,3.23
2022-09-25T17:34:28.457Z,2.50
2022-09-25T17:36:55.332Z,2.60
2022-09-25T17:39:21.749Z,3.03
2022-09-25T17:41:48.167Z,4.40
2022-09-25T17:44:22.318Z,4.90
2022-09-25T17:46:50.733Z,2.63
2022-09-25T17:49:17.780Z,7.03
2022-09-25T17:51:44.726Z,3.90
2022-09-25T17:54:13.279Z,4.20
2022-09-25T17:56:40.419Z,8.80
2022-09-25T17:59:08.541Z,7.90
2022-09-25T18:01:39.074Z,10.60
2022-09-25T18:04:24.512Z,7.40
2022-09-25T18:06:51.947Z,9.07
2022-09-25T18:09:18.520Z,8.10
2022-09-25T18:11:45.007Z,10.20
2022-09-25T18:14:13.176Z,7.20
2022-09-25T18:16:41.500Z,7.80
2022-09-25T18:19:34.192Z,4.97
2022-09-25T18:22:20.579Z,10.00
2022-09-25T18:24:52.320Z,7.80
2022-09-25T18:27:19.213Z,4.73
2022-09-25T18:29:47.312Z,8.30
2022-09-25T18:32:14.205Z,8.53
2022-09-25T18:34:41.608Z,6.87
2022-09-25T18:37:08.155Z,7.13
2022-09-25T18:39:35.038Z,6.53
2022-09-25T18:42:04.633Z,6.60
2022-09-25T18:44:39.834Z,5.63
2022-09-25T18:47:08.132Z,5.07
2022-09-25T18:49:36.334Z,6.70
2022-09-25T18:52:03.644Z,7.60
2022-09-25T18:54:30.083Z,5.70
2022-09-25T18:56:58.447Z,5.37
2022-09-25T18:59:26.469Z,6.63
2022-09-25T19:01:54.417Z,8.30
2022-09-25T19:04:21.555Z,15.27
2022-09-25T19:06:48.701Z,37.43
2022-09-25T19:09:16.889Z,25.00
2022-09-25T19:11:44.431Z,17.33
2022-09-25T19:14:12.864Z,9.80
2022-09-25T19:16:39.351Z,7.43
2022-09-25T19:19:05.859Z,7.67
2022-09-25T19:21:33.166Z,5.13
2022-09-25T19:23:59.665Z,7.07
2022-09-25T19:26:26.113Z,5.10
2022-09-25T19:28:53.558Z,4.93
2022-09-25T19:31:23.050Z,6.87
2022-09-25T19:33:49.621Z,5.70
2022-09-25T19:36:20.348Z,6.80
2022-09-25T19:38:47.517Z,8.40
2022-09-25T19:41:21.781Z,7.83
2022-09-25T19:43:48.560Z,6.23
2022-09-25T19:46:17.478Z,6.17
2022-09-25T19:48:44.844Z,7.60
2022-09-25T19:51:11.780Z,9.40
2022-09-25T19:53:40.712Z,9.47
2022-09-25T19:56:08.857Z,5.93
2022-09-25T19:58:38.342Z,10.50
2022-09-25T20:01:12.046Z,8.93
2022-09-25T20:03:41.907Z,7.50
2022-09-25T20:06:09.565Z,7.70
2022-09-25T20:08:37.256Z,5.63
2022-09-25T20:11:21.549Z,8.67
2022-09-25T20:13:50.783Z,8.53
2022-09-25T20:16:19.956Z,7.27
2022-09-25T20:19:09.214Z,10.07
2022-09-25T20:21:37.904Z,9.93
2022-09-25T20:24:07.103Z,8.43
2022-09-25T20:26:36.573Z,7.07
2022-09-25T20:29:14.561Z,8.23
2022-09-25T20:31:43.210Z,7.30
2022-09-25T20:34:17.373Z,7.33
2022-09-25T20:36:44.388Z,9.13
2022-09-25T20:39:10.992Z,8.43
2022-09-25T20:41:38.308Z,9.07
2022-09-25T20:44:06.379Z,9.87
2022-09-25T20:46:34.806Z,6.67
2022-09-25T20:49:04.132Z,7.60
2022-09-25T20:51:35.214Z,6.63
2022-09-25T20:54:06.225Z,4.90
2022-09-25T20:56:36.404Z,6.13
2022-09-25T20:59:04.780Z,6.73
2022-09-25T21:01:36.874Z,6.70
2022-09-25T21:04:08.326Z,8.87
2022-09-25T21:06:37.878Z,7.50
2022-09-25T21:09:29.672Z,14.00
2022-09-25T21:11:56.738Z,8.10
2022-09-25T21:14:25.730Z,9.17
2022-09-25T21:16:53.065Z,6.07
2022-09-25T21:19:21.050Z,5.57
2022-09-25T21:21:48.357Z,7.20
2022-09-25T21:24:16.545Z,5.57
2022-09-25T21:26:43.539Z,8.10
2022-09-25T21:29:11.855Z,9.03
2022-09-25T21:31:42.718Z,6.73
2022-09-25T21:34:14.904Z,10.63
2022-09-25T21:36:41.924Z,8.03
2022-09-25T21:39:09.305Z,7.27
2022-09-25T21:41:36.475Z,8.33
2022-09-25T21:44:06.735Z,6.93
2022-09-25T21:46:34.925Z,6.60
2022-09-25T21:49:08.069Z,5.33
2022-09-25T21:51:42.586Z,8.50
2022-09-25T21:54:10.860Z,4.87
2022-09-25T21:56:38.015Z,8.50
2022-09-25T21:59:08.779Z,7.37
2022-09-25T22:01:37.553Z,7.37
2022-09-25T22:04:11.796Z,7.00
2022-09-25T22:06:40.617Z,8.50
2022-09-25T22:09:13.599Z,5.27
2022-09-25T22:11:40.612Z,6.77
2022-09-25T22:14:10.880Z,9.30
2022-09-25T22:16:42.523Z,6.63
2022-09-25T22:19:18.542Z,5.27
2022-09-25T22:21:47.022Z,7.97
2022-09-25T22:24:14.085Z,6.63
2022-09-25T22:26:42.876Z,8.67
2022-09-25T22:29:10.275Z,6.00
2022-09-25T22:31:44.060Z,6.77
2022-09-25T22:34:14.897Z,7.60
2022-09-25T22:36:41.479Z,9.20
2022-09-25T22:39:07.995Z,7.50
2022-09-25T22:41:38.097Z,9.00
2022-09-25T22:44:08.067Z,4.53
2022-09-25T22:46:37.850Z,12.53
2022-09-25T22:49:04.877Z,9.03
2022-09-25T22:51:31.730Z,8.77
2022-09-25T22:53:58.214Z,8.33
2022-09-25T22:56:27.647Z,8.70
2022-09-25T22:58:59.080Z,7.63
2022-09-25T23:01:33.740Z,7.37
2022-09-25T23:04:03.926Z,8.03
2022-09-25T23:06:33.039Z,5.80
2022-09-25T23:09:03.057Z,4.67
2022-09-25T23:11:30.257Z,5.87
2022-09-25T23:13:59.545Z,6.13
2022-09-25T23:16:26.784Z,7.37
2022-09-25T23:18:55.616Z,5.50
2022-09-25T23:21:22.549Z,7.57
2022-09-25T23:23:49.004Z,10.37
2022-09-25T23:26:15.429Z,5.47
2022-09-25T23:28:41.870Z,6.50
2022-09-25T23:31:13.724Z,5.73
2022-09-25T23:33:41.378Z,6.00
2022-09-25T23:36:13.531Z,5.20
2022-09-25T23:38:40.147Z,7.60
2022-09-25T23:41:17.046Z,6.73
2022-09-25T23:43:44.861Z,4.53
2022-09-25T23:46:12.282Z,6.57
2022-09-25T23:48:39.643Z,10.67
2022-09-25T23:51:06.709Z,6.40
2022-09-25T23:53:34.240Z,5.53
2022-09-25T23:56:07.763Z,8.27
2022-09-25T23:58:35.291Z,4.63
